Time;durP1;ratioP1;P1;durP2;ratioP2;P2;SDS_P1;SDS_P2;PMS_P1;PMS_P2;Temp;Humidity;BMP_temperature;BMP_pressure;BME280_temperature;BME280_humidity;BME280_pressure;Samples;Min_cycle;Max_cycle;Signal;HPM_P1;HPM_P2
2021/07/22 00:01:50;;;;;;;;;;;;;;;23.42;55.59;100931.50;5022833;28;1006;-42
2021/07/22 00:04:17;;;;;;;;;;;;;;;23.40;55.65;100944.31;5019890;28;1682;-42
2021/07/22 00:06:43;;;;;;;;;;;;;;;23.45;55.73;100937.56;5023521;28;1547;-42
2021/07/22 00:09:11;;;;;;;;;;;;;;;23.42;55.74;100946.84;5016529;28;1696;-42
2021/07/22 00:11:38;;;;;;;;;;;;;;;23.38;55.71;100940.91;5026916;28;1794;-42
2021/07/22 00:14:04;;;;;;;;;;;;;;;23.40;55.57;100944.31;5022684;28;1984;-42
2021/07/22 00:16:31;;;;;;;;;;;;;;;23.48;55.05;100940.81;5022319;28;1807;-42
2021/07/22 00:18:57;;;;;;;;;;;;;;;23.45;55.46;100937.56;5022185;28;1822;-42
2021/07/22 00:21:23;;;;;;;;;;;;;;;23.43;55.68;100943.97;5028494;28;1737;-41
2021/07/22 00:23:50;;;;;;;;;;;;;;;23.32;55.75;100941.56;5029983;28;1601;-42
2021/07/22 00:26:18;;;;;;;;;;;;;;;23.30;55.74;100938.19;5026951;28;1622;-42
2021/07/22 00:28:44;;;;;;;;;;;;;;;23.38;55.54;100942.78;5031270;28;1558;-42
2021/07/22 00:31:11;;;;;;;;;;;;;;;23.15;56.22;100942.47;5030431;28;2001;-42
2021/07/22 00:33:37;;;;;;;;;;;;;;;23.09;56.51;100935.00;5030122;28;1744;-42
2021/07/22 00:36:07;;;;;;;;;;;;;;;23.21;56.03;100947.22;5023661;28;1910;-42
2021/07/22 00:38:34;;;;;;;;;;;;;;;23.18;56.22;100950.25;5023141;28;1672;-43
2021/07/22 00:41:00;;;;;;;;;;;;;;;23.23;56.10;100935.25;5025178;28;1010;-42
2021/07/22 00:43:28;;;;;;;;;;;;;;;23.28;55.72;100952.81;5029764;28;1949;-42
2021/07/22 00:45:55;;;;;;;;;;;;;;;23.02;56.47;100945.59;5027674;28;1941;-42
2021/07/22 00:48:21;;;;;;;;;;;;;;;22.99;56.71;100948.56;5026249;28;1646;-42
2021/07/22 00:50:48;;;;;;;;;;;;;;;23.16;56.27;100952.25;5030661;28;1649;-42
2021/07/22 00:53:14;;;;;;;;;;;;;;;23.23;56.26;100950.59;5036821;28;1557;-42
2021/07/22 00:55:41;;;;;;;;;;;;;;;23.14;56.28;100948.84;5024291;28;1910;-42
2021/07/22 00:58:07;;;;;;;;;;;;;;;23.18;56.47;100955.66;5026298;28;1533;-42
2021/07/22 01:00:35;;;;;;;;;;;;;;;23.25;56.23;100932.41;5029928;28;1756;-42
2021/07/22 01:03:01;;;;;;;;;;;;;;;23.33;56.09;100937.84;5020903;28;1916;-42
2021/07/22 01:05:28;;;;;;;;;;;;;;;23.38;55.48;100943.63;5027848;28;1793;-42
2021/07/22 01:07:54;;;;;;;;;;;;;;;23.39;55.68;100955.25;5028338;28;1086;-42
2021/07/22 01:10:21;;;;;;;;;;;;;;;23.36;55.49;100947.50;5032866;28;1692;-41
2021/07/22 01:12:47;;;;;;;;;;;;;;;23.38;55.46;100954.41;5025882;28;1653;-42
2021/07/22 01:15:14;;;;;;;;;;;;;;;23.38;55.46;100945.47;5025319;28;1985;-43
2021/07/22 01:17:43;;;;;;;;;;;;;;;23.37;55.67;100931.13;5028628;28;1748;-42
2021/07/22 01:20:12;;;;;;;;;;;;;;;23.37;55.88;100936.50;5023929;28;1967;-42
2021/07/22 01:22:39;;;;;;;;;;;;;;;23.37;55.62;100946.47;5024971;28;2002;-42
2021/07/22 01:25:06;;;;;;;;;;;;;;;23.36;55.59;100951.03;5024764;28;2009;-42
2021/07/22 01:27:32;;;;;;;;;;;;;;;23.36;55.69;100951.03;5025135;28;1819;-42
2021/07/22 01:29:59;;;;;;;;;;;;;;;23.37;55.56;100955.41;5029620;28;1676;-42
2021/07/22 01:32:25;;;;;;;;;;;;;;;23.36;55.45;100955.59;5029063;28;1670;-42
2021/07/22 01:34:52;;;;;;;;;;;;;;;23.37;55.68;100962.66;5027431;28;1906;-42
2021/07/22 01:37:20;;;;;;;;;;;;;;;23.38;55.85;100973.31;5024842;28;1099;-41
2021/07/22 01:39:46;;;;;;;;;;;;;;;23.34;55.43;100963.84;5020513;28;1762;-42
2021/07/22 01:42:12;;;;;;;;;;;;;;;23.37;55.55;100955.41;5025772;28;2042;-42
2021/07/22 01:44:39;;;;;;;;;;;;;;;23.13;55.96;100971.44;5027651;28;1852;-42
2021/07/22 01:47:06;;;;;;;;;;;;;;;23.06;56.09;100970.38;5031074;28;1544;-42
2021/07/22 01:49:32;;;;;;;;;;;;;;;23.23;55.71;100981.13;5029570;28;1551;-42
2021/07/22 01:52:00;;;;;;;;;;;;;;;23.22;55.71;100979.44;5031081;28;1550;-42
2021/07/22 01:54:28;;;;;;;;;;;;;;;23.24;55.92;100957.72;5030938;28;1948;-42
2021/07/22 01:56:56;;;;;;;;;;;;;;;23.27;55.46;100968.16;5027015;28;1601;-42
2021/07/22 01:59:23;;;;;;;;;;;;;;;23.25;55.55;100970.19;5027830;28;1566;-42
2021/07/22 02:01:50;;;;;;;;;;;;;;;23.01;56.25;100970.81;5131210;23;3555;-43
2021/07/22 02:04:17;;;;;;;;;;;;;;;22.87;56.71;100977.63;5047618;28;1871;-42
2021/07/22 02:06:46;;;;;;;;;;;;;;;22.66;57.47;100969.88;5039719;28;1639;-42
2021/07/22 02:09:13;;;;;;;;;;;;;;;22.83;57.35;100973.53;5044085;28;1109;-42
2021/07/22 02:11:41;;;;;;;;;;;;;;;23.03;56.86;100974.25;5051205;28;1985;-40
2021/07/22 02:14:09;;;;;;;;;;;;;;;23.14;56.56;100979.38;5048104;28;1713;-40
2021/07/22 02:16:42;;;;;;;;;;;;;;;23.15;56.67;100977.53;5046115;28;1987;-40
2021/07/22 02:19:11;;;;;;;;;;;;;;;22.91;57.19;100978.16;5047099;28;1656;-40
2021/07/22 02:21:37;;;;;;;;;;;;;;;23.11;57.04;100985.09;5043736;28;1713;-40
2021/07/22 02:24:08;;;;;;;;;;;;;;;23.02;57.06;100981.50;5036621;28;2005;-39
2021/07/22 02:26:35;;;;;;;;;;;;;;;22.98;57.23;100988.16;5040105;28;1781;-40
2021/07/22 02:29:04;;;;;;;;;;;;;;;23.06;56.96;100982.03;5039873;28;1730;-40
2021/07/22 02:31:31;;;;;;;;;;;;;;;23.08;56.83;100979.16;5045155;28;1085;-40
2021/07/22 02:34:10;;;;;;;;;;;;;;;22.94;57.03;100984.09;5049491;28;1974;-40
2021/07/22 02:36:36;;;;;;;;;;;;;;;22.98;57.03;100985.47;5051263;28;1953;-40
2021/07/22 02:39:06;;;;;;;;;;;;;;;23.10;56.55;100987.94;5049695;28;1984;-40
2021/07/22 02:41:33;;;;;;;;;;;;;;;23.10;56.54;100982.53;5036852;28;1759;-39
2021/07/22 02:44:02;;;;;;;;;;;;;;;23.12;56.20;100991.31;5048397;28;1493;-40
2021/07/22 02:46:37;;;;;;;;;;;;;;;23.11;56.53;100993.19;5042169;28;1174;-39
2021/07/22 02:49:07;;;;;;;;;;;;;;;23.12;56.40;101002.09;5032726;28;1097;-40
2021/07/22 02:51:34;;;;;;;;;;;;;;;23.12;56.32;100992.19;5044602;28;1848;-42
2021/07/22 02:54:00;;;;;;;;;;;;;;;22.97;56.68;100999.94;5050369;28;1799;-42
2021/07/22 02:56:31;;;;;;;;;;;;;;;22.96;56.72;101011.75;5051294;28;1913;-42
2021/07/22 02:58:57;;;;;;;;;;;;;;;23.05;56.42;100998.38;5050922;28;1587;-42
2021/07/22 03:01:27;;;;;;;;;;;;;;;23.11;56.32;101005.81;5046585;28;1290;-40
2021/07/22 03:04:02;;;;;;;;;;;;;;;23.16;56.22;101003.53;5056785;28;1747;-40
2021/07/22 03:09:13;;;;;;;;;;;;;;;23.05;56.51;100995.66;5053578;28;2321;-40
2021/07/22 03:11:40;;;;;;;;;;;;;;;22.78;56.91;101005.50;5061272;28;1786;-40
2021/07/22 03:14:09;;;;;;;;;;;;;;;22.68;57.10;100999.34;5064090;28;1837;-40
2021/07/22 03:16:37;;;;;;;;;;;;;;;22.47;57.61;101013.16;5065101;28;1910;-40
2021/07/22 03:19:04;;;;;;;;;;;;;;;22.43;57.95;100997.25;5065577;28;1786;-40
2021/07/22 03:21:31;;;;;;;;;;;;;;;22.68;57.44;101037.09;5063963;28;1749;-40
2021/07/22 03:23:58;;;;;;;;;;;;;;;22.80;57.50;101004.38;5061909;28;1776;-40
2021/07/22 03:26:24;;;;;;;;;;;;;;;22.93;56.84;101012.06;5062699;28;1625;-40
2021/07/22 03:28:53;;;;;;;;;;;;;;;23.02;56.91;101013.03;5067695;28;1050;-40
2021/07/22 03:31:23;;;;;;;;;;;;;;;23.06;56.68;101002.75;5064235;28;1829;-40
2021/07/22 03:33:49;;;;;;;;;;;;;;;23.11;56.59;101022.00;5057667;28;1880;-40
2021/07/22 03:36:17;;;;;;;;;;;;;;;23.17;56.95;101021.38;5056815;28;1982;-40
2021/07/22 03:38:46;;;;;;;;;;;;;;;23.20;56.80;101031.88;5071156;28;1591;-40
2021/07/22 03:41:19;;;;;;;;;;;;;;;23.17;56.62;101010.59;5069343;28;1447;-40
2021/07/22 03:43:45;;;;;;;;;;;;;;;23.23;56.90;101009.97;5061162;28;1060;-40
2021/07/22 03:46:12;;;;;;;;;;;;;;;23.25;56.52;101005.25;5065598;28;1997;-40
2021/07/22 03:48:38;;;;;;;;;;;;;;;23.26;56.90;101003.41;5062869;28;1966;-40
2021/07/22 03:51:05;;;;;;;;;;;;;;;23.25;56.99;101013.34;5062137;28;1682;-40
2021/07/22 03:53:32;;;;;;;;;;;;;;;23.22;56.91;100998.31;5068106;28;1800;-40
2021/07/22 03:56:00;;;;;;;;;;;;;;;23.16;57.25;100998.13;5065840;28;1984;-40
2021/07/22 03:58:27;;;;;;;;;;;;;;;23.07;57.82;101020.63;5064026;28;1832;-40
2021/07/22 04:00:57;;;;;;;;;;;;;;;22.74;58.32;101004.13;5059249;28;2044;-40
2021/07/22 04:03:23;;;;;;;;;;;;;;;22.86;58.45;101007.44;5065235;28;1548;-40
2021/07/22 04:05:50;;;;;;;;;;;;;;;22.68;58.89;101015.53;5056531;28;1598;-39
2021/07/22 04:08:16;;;;;;;;;;;;;;;22.55;59.35;101005.97;5059117;28;1560;-40
2021/07/22 04:10:46;;;;;;;;;;;;;;;22.57;58.71;101012.06;5069113;28;1860;-40
2021/07/22 04:13:15;;;;;;;;;;;;;;;22.58;59.10;101008.38;5063239;28;1439;-40
2021/07/22 04:15:42;;;;;;;;;;;;;;;22.63;58.87;101008.75;5063879;28;1963;-40
2021/07/22 04:18:08;;;;;;;;;;;;;;;22.58;58.67;101004.81;5059715;28;1898;-40
2021/07/22 04:20:36;;;;;;;;;;;;;;;22.55;58.79;101008.66;5060250;28;1771;-39
2021/07/22 04:23:02;;;;;;;;;;;;;;;22.70;58.78;101013.53;5056159;28;1792;-39
2021/07/22 04:25:31;;;;;;;;;;;;;;;22.88;58.35;101005.44;5062623;28;1681;-39
2021/07/22 04:28:02;;;;;;;;;;;;;;;22.94;58.52;101010.19;5064792;28;1823;-40
2021/07/22 04:30:28;;;;;;;;;;;;;;;23.08;58.13;101011.53;5061292;28;1881;-40
2021/07/22 04:32:57;;;;;;;;;;;;;;;23.14;57.88;101027.06;5066009;28;1775;-40
2021/07/22 04:35:24;;;;;;;;;;;;;;;23.16;57.93;101022.41;5060915;28;1910;-40
2021/07/22 04:37:50;;;;;;;;;;;;;;;23.03;58.19;101020.94;5060562;28;1083;-39
2021/07/22 04:40:17;;;;;;;;;;;;;;;22.93;58.63;100993.19;5054586;28;1967;-40
2021/07/22 04:42:45;;;;;;;;;;;;;;;23.07;58.43;101004.44;5063861;28;1784;-40
2021/07/22 04:45:16;;;;;;;;;;;;;;;22.82;58.84;101007.75;5063945;28;1480;-40
2021/07/22 04:47:43;;;;;;;;;;;;;;;22.62;59.77;101025.94;5059863;28;1725;-40
2021/07/22 04:50:11;;;;;;;;;;;;;;;22.66;59.57;101022.91;5069004;28;1653;-40
2021/07/22 04:52:37;;;;;;;;;;;;;;;22.94;58.67;101019.16;5061075;28;1019;-40
2021/07/22 04:55:04;;;;;;;;;;;;;;;23.17;58.44;101026.78;5060667;28;1771;-40
2021/07/22 04:57:31;;;;;;;;;;;;;;;23.37;58.07;101035.53;5058348;28;1906;-40
2021/07/22 04:59:57;;;;;;;;;;;;;;;23.32;58.15;101018.97;5061266;28;1720;-40
2021/07/22 05:02:32;;;;;;;;;;;;;;;23.30;58.14;101031.75;5054981;28;1782;-40
2021/07/22 05:05:01;;;;;;;;;;;;;;;23.31;59.12;101031.59;5064439;28;1665;-40
2021/07/22 05:07:28;;;;;;;;;;;;;;;23.18;58.85;101025.78;5064870;28;1817;-40
2021/07/22 05:10:02;;;;;;;;;;;;;;;23.08;58.87;101022.31;5051655;28;1808;-40
2021/07/22 05:12:30;;;;;;;;;;;;;;;23.12;58.84;101040.75;5063948;28;1019;-39
2021/07/22 05:14:57;;;;;;;;;;;;;;;23.16;57.97;101027.81;5066342;28;1930;-40
2021/07/22 05:17:25;;;;;;;;;;;;;;;23.15;58.57;101031.47;5065810;28;1971;-40
2021/07/22 05:19:51;;;;;;;;;;;;;;;23.12;59.00;101029.97;5067791;28;1962;-40
2021/07/22 05:22:21;;;;;;;;;;;;;;;23.17;59.30;101018.69;5067738;28;1741;-40
2021/07/22 05:24:49;;;;;;;;;;;;;;;23.23;59.06;101028.84;5070883;28;1705;-40
2021/07/22 05:27:15;;;;;;;;;;;;;;;23.33;58.23;101026.88;5072286;28;1593;-40
2021/07/22 05:29:42;;;;;;;;;;;;;;;23.43;58.32;101035.72;5070698;28;1716;-40
2021/07/22 05:32:09;;;;;;;;;;;;;;;23.47;58.31;101021.94;5070339;28;1657;-40
2021/07/22 05:34:40;;;;;;;;;;;;;;;23.64;58.59;101029.13;5065080;28;1679;-39
2021/07/22 05:37:07;;;;;;;;;;;;;;;23.58;58.54;101032.47;5074947;28;1983;-40
2021/07/22 05:39:36;;;;;;;;;;;;;;;23.53;58.45;101027.53;5067018;28;1748;-40
2021/07/22 05:42:04;;;;;;;;;;;;;;;23.57;58.71;101023.50;5064082;28;1690;-40
2021/07/22 05:44:30;;;;;;;;;;;;;;;23.53;58.73;101029.38;5065744;28;1783;-40
2021/07/22 05:46:57;;;;;;;;;;;;;;;23.50;58.92;101027.88;5059201;28;1432;-40
2021/07/22 05:49:25;;;;;;;;;;;;;;;23.57;58.68;101028.06;5072958;28;1611;-40
2021/07/22 05:55:04;;;;;;;;;;;;;;;23.61;58.67;101024.88;5005864;28;1940;-40
2021/07/22 05:57:38;;;;;;;;;;;;;;;23.68;58.15;101035.06;5065080;28;1996;-40
2021/07/22 06:00:06;;;;;;;;;;;;;;;23.76;58.46;101033.25;5062489;28;1631;-40
2021/07/22 06:02:35;;;;;;;;;;;;;;;23.75;58.68;101009.09;5074411;28;1343;-40
2021/07/22 06:05:02;;;;;;;;;;;;;;;23.73;58.50;101017.34;5072333;28;1445;-40
2021/07/22 06:07:36;;;;;;;;;;;;;;;23.71;58.37;101027.47;5073134;28;1853;-40
2021/07/22 06:10:04;;;;;;;;;;;;;;;23.64;58.49;101021.03;5055008;28;1866;-40
2021/07/22 06:12:30;;;;;;;;;;;;;;;23.67;58.23;101036.06;5067400;28;1134;-40
2021/07/22 06:14:57;;;;;;;;;;;;;;;23.75;58.42;101033.41;5054771;28;1572;-40
2021/07/22 06:17:26;;;;;;;;;;;;;;;23.69;58.59;101032.19;5071103;28;1979;-40
2021/07/22 06:19:56;;;;;;;;;;;;;;;23.72;58.36;101045.38;5071954;28;1887;-40
2021/07/22 06:22:26;;;;;;;;;;;;;;;23.67;58.29;101036.06;5072181;28;1886;-40
2021/07/22 06:25:00;;;;;;;;;;;;;;;23.74;58.57;101045.22;5071006;28;1915;-40
2021/07/22 06:27:27;;;;;;;;;;;;;;;23.82;58.45;101046.13;5066902;28;1423;-40
2021/07/22 06:29:57;;;;;;;;;;;;;;;23.89;58.27;101042.78;5066368;28;1743;-39
2021/07/22 06:32:24;;;;;;;;;;;;;;;23.85;58.60;101041.41;5072558;28;1834;-40
2021/07/22 06:34:53;;;;;;;;;;;;;;;23.93;57.83;101038.75;5067804;28;1694;-40
2021/07/22 06:37:22;;;;;;;;;;;;;;;23.95;57.41;101042.97;5074141;28;1906;-39
2021/07/22 06:39:49;;;;;;;;;;;;;;;23.94;58.00;101040.47;5071898;28;1826;-40
2021/07/22 06:42:28;;;;;;;;;;;;;;;23.95;57.87;101048.38;5063760;28;1751;-40
2021/07/22 06:44:59;;;;;;;;;;;;;;;23.93;57.83;101054.97;5053972;28;1661;-40
2021/07/22 06:47:29;;;;;;;;;;;;;;;23.90;58.05;101053.44;5056654;28;1967;-40
2021/07/22 06:49:55;;;;;;;;;;;;;;;23.97;57.67;101040.13;5057554;28;1917;-40
2021/07/22 06:52:22;;;;;;;;;;;;;;;24.04;57.88;101040.34;5073654;28;1006;-40
2021/07/22 06:54:51;;;;;;;;;;;;;;;24.04;58.13;101027.66;5072063;28;1799;-40
2021/07/22 06:57:19;;;;;;;;;;;;;;;24.05;58.19;101037.44;5060432;28;1910;-40
2021/07/22 06:59:49;;;;;;;;;;;;;;;24.07;57.31;101040.00;5059248;28;1676;-40
2021/07/22 07:02:24;;;;;;;;;;;;;;;24.10;57.77;101037.81;5063197;28;1412;-40
2021/07/22 07:04:52;;;;;;;;;;;;;;;24.17;58.09;101030.78;5053498;28;2055;-40
2021/07/22 07:07:19;;;;;;;;;;;;;;;24.17;58.05;101041.56;5067143;28;1738;-40
2021/07/22 07:09:47;;;;;;;;;;;;;;;24.25;57.71;101040.75;5055363;28;1086;-40
2021/07/22 07:12:16;;;;;;;;;;;;;;;24.31;57.75;101031.13;5056695;28;1900;-40
2021/07/22 07:14:48;;;;;;;;;;;;;;;24.33;57.85;101045.31;5066968;28;1605;-40
2021/07/22 07:17:18;;;;;;;;;;;;;;;24.33;57.79;101029.09;5059830;28;1960;-40
2021/07/22 07:19:44;;;;;;;;;;;;;;;24.34;57.43;101028.13;5068411;28;1733;-40
2021/07/22 07:22:12;;;;;;;;;;;;;;;24.36;57.12;101036.91;5062264;28;1546;-39
2021/07/22 07:24:39;;;;;;;;;;;;;;;24.44;57.19;101053.13;5060417;28;1964;-40
2021/07/22 07:27:09;;;;;;;;;;;;;;;24.40;57.54;101051.78;5052960;28;1925;-39
2021/07/22 07:29:50;;;;;;;;;;;;;;;24.43;56.90;101048.72;5056455;28;1468;-40
2021/07/22 07:32:30;;;;;;;;;;;;;;;24.40;57.28;101047.22;5069454;28;1505;-40
2021/07/22 07:34:57;;;;;;;;;;;;;;;24.39;56.44;101047.38;5052391;28;1599;-40
2021/07/22 07:37:25;;;;;;;;;;;;;;;24.39;56.42;101055.47;5052880;28;1906;-40
2021/07/22 07:39:55;;;;;;;;;;;;;;;24.35;57.11;101054.13;5060403;28;1520;-40
2021/07/22 07:42:21;;;;;;;;;;;;;;;24.37;56.82;101052.09;5060419;28;1492;-40
2021/07/22 07:44:49;;;;;;;;;;;;;;;24.34;57.56;101045.16;5071247;28;1527;-40
2021/07/22 07:47:16;;;;;;;;;;;;;;;24.36;57.57;101050.41;5070672;28;2008;-40
2021/07/22 07:49:44;;;;;;;;;;;;;;;24.37;57.75;101052.09;5062897;28;1648;-40
2021/07/22 07:52:12;;;;;;;;;;;;;;;24.35;57.75;101059.53;5065599;28;1103;-40
2021/07/22 07:54:44;;;;;;;;;;;;;;;24.36;57.19;101039.59;5055638;28;1388;-40
2021/07/22 07:59:55;;;;;;;;;;;;;;;24.37;57.47;101043.97;5056124;28;2334;-40
2021/07/22 08:02:22;;;;;;;;;;;;;;;24.40;57.40;101049.91;5070513;28;1596;-40
2021/07/22 08:04:50;;;;;;;;;;;;;;;24.37;57.56;101038.56;5058293;28;1347;-41
2021/07/22 08:07:19;;;;;;;;;;;;;;;24.36;57.35;101026.94;5067455;28;1010;-40
2021/07/22 08:09:47;;;;;;;;;;;;;;;24.40;57.96;101052.63;5065442;28;1801;-40
2021/07/22 08:12:14;;;;;;;;;;;;;;;24.35;57.86;101043.31;5061280;28;1661;-40
2021/07/22 08:14:41;;;;;;;;;;;;;;;24.37;57.61;101039.44;5063185;28;1652;-40
2021/07/22 08:17:08;;;;;;;;;;;;;;;24.38;57.80;101045.69;5063013;28;1910;-40
2021/07/22 08:19:34;;;;;;;;;;;;;;;24.36;57.77;101034.19;5065978;28;1609;-40
2021/07/22 08:22:14;;;;;;;;;;;;;;;24.39;58.02;101032.03;5065254;28;1090;-40
2021/07/22 08:24:43;;;;;;;;;;;;;;;24.43;58.05;101051.44;5054786;28;1844;-40
2021/07/22 08:27:13;;;;;;;;;;;;;;;24.39;57.63;101044.66;5060090;28;1685;-40
2021/07/22 08:29:44;;;;;;;;;;;;;;;24.41;58.53;101042.66;5059261;28;1566;-40
2021/07/22 08:32:13;;;;;;;;;;;;;;;24.38;58.20;101043.00;5060377;28;1765;-40
2021/07/22 08:34:43;;;;;;;;;;;;;;;24.42;58.73;101055.16;5065951;28;1817;-40
2021/07/22 08:37:11;;;;;;;;;;;;;;;24.36;58.62;101056.66;5060894;28;1914;-40
2021/07/22 08:39:46;;;;;;;;;;;;;;;24.40;58.21;101054.47;5054062;28;1616;-40
2021/07/22 08:42:17;;;;;;;;;;;;;;;24.42;58.33;101047.88;5058159;28;1692;-40
2021/07/22 08:44:47;;;;;;;;;;;;;;;24.40;58.59;101052.63;5056803;28;1668;-39
2021/07/22 08:47:14;;;;;;;;;;;;;;;24.42;58.20;101056.00;5065629;28;1543;-40
2021/07/22 08:49:41;;;;;;;;;;;;;;;24.43;58.62;101067.66;5071716;28;1464;-40
2021/07/22 08:52:08;;;;;;;;;;;;;;;24.45;58.54;101062.94;5059941;28;1143;-40
2021/07/22 08:54:37;;;;;;;;;;;;;;;24.45;57.64;101064.78;5057761;28;1672;-40
2021/07/22 08:57:07;;;;;;;;;;;;;;;24.44;57.58;101053.13;5060008;28;1914;-40
2021/07/22 08:59:37;;;;;;;;;;;;;;;24.49;57.99;101061.63;5069050;28;1576;-40
2021/07/22 09:02:08;;;;;;;;;;;;;;;24.44;57.78;101052.31;5068251;28;1952;-40
2021/07/22 09:04:52;;;;;;;;;;;;;;;24.40;57.07;101049.06;5059807;28;1794;-40
2021/07/22 09:07:22;;;;;;;;;;;;;;;24.43;57.30;101056.84;5063526;28;1567;-40
2021/07/22 09:10:09;;;;;;;;;;;;;;;24.49;57.49;101053.50;5072304;28;1503;-39
2021/07/22 09:12:38;;;;;;;;;;;;;;;24.53;57.45;101052.19;5068435;28;1667;-39
2021/07/22 09:15:10;;;;;;;;;;;;;;;24.55;57.46;101052.88;5063592;28;1596;-40
2021/07/22 09:17:39;;;;;;;;;;;;;;;24.56;56.59;101056.41;5068415;28;1958;-40
2021/07/22 09:20:29;;;;;;;;;;;;;;;24.61;52.83;101043.22;5070570;28;1588;-40
2021/07/22 09:22:57;;;;;;;;;;;;;;;24.59;50.96;101045.25;5071073;28;2112;-39
2021/07/22 09:25:48;;;;;;;;;;;;;;;24.61;54.86;101059.44;5068957;28;1823;-40
2021/07/22 09:28:21;;;;;;;;;;;;;;;24.55;55.71;101046.59;5056701;28;2047;-40
2021/07/22 09:30:55;;;;;;;;;;;;;;;24.56;55.15;101051.84;5062548;28;1778;-40
2021/07/22 09:33:31;;;;;;;;;;;;;;;24.58;52.97;101049.81;5071084;28;1674;-40
2021/07/22 09:36:00;;;;;;;;;;;;;;;24.65;51.36;101043.75;5061713;28;1655;-40
2021/07/22 09:38:30;;;;;;;;;;;;;;;24.67;51.46;101049.84;5059662;28;1975;-40
2021/07/22 09:40:57;;;;;;;;;;;;;;;24.66;51.94;101057.09;5064751;28;1826;-40
2021/07/22 09:46:42;;;;;;;;;;;;;;;24.67;54.30;101041.72;5066663;28;2349;-40
2021/07/22 09:49:10;;;;;;;;;;;;;;;24.68;54.44;101041.56;5071416;28;1936;-40
2021/07/22 09:51:37;;;;;;;;;;;;;;;24.74;51.49;101042.75;5060282;28;2065;-40
2021/07/22 09:54:17;;;;;;;;;;;;;;;24.79;52.86;101043.97;5058549;28;1385;-40
2021/07/22 09:56:43;;;;;;;;;;;;;;;24.82;53.28;101048.19;5070800;28;1997;-40
2021/07/22 09:59:14;;;;;;;;;;;;;;;24.86;53.21;101025.19;5054181;28;1906;-40
2021/07/22 10:01:47;;;;;;;;;;;;;;;24.88;54.96;101039.38;5058562;28;1297;-40
2021/07/22 10:04:15;;;;;;;;;;;;;;;24.98;50.79;101036.53;5066955;28;1693;-40
2021/07/22 10:06:47;;;;;;;;;;;;;;;25.00;51.71;101035.34;5066815;28;1427;-40
2021/07/22 10:09:16;;;;;;;;;;;;;;;25.01;50.40;101031.63;5073695;28;1768;-40
2021/07/22 10:11:50;;;;;;;;;;;;;;;25.01;51.45;101037.03;5064576;28;1810;-39
2021/07/22 10:14:20;;;;;;;;;;;;;;;24.93;53.12;101026.22;5066516;28;1741;-40
2021/07/22 10:16:51;;;;;;;;;;;;;;;24.89;52.41;101024.00;5067575;28;1787;-40
2021/07/22 10:19:21;;;;;;;;;;;;;;;24.90;50.61;101034.66;5062627;28;1977;-40
2021/07/22 10:21:51;;;;;;;;;;;;;;;24.89;50.35;101032.97;5067337;28;1872;-40
2021/07/22 10:24:18;;;;;;;;;;;;;;;24.89;50.67;101013.19;5046376;28;1387;-40
2021/07/22 10:26:46;;;;;;;;;;;;;;;24.90;50.84;101025.69;5062144;28;1554;-40
2021/07/22 10:29:15;;;;;;;;;;;;;;;24.87;51.89;101026.88;5063677;28;1538;-40
2021/07/22 10:31:56;;;;;;;;;;;;;;;24.91;51.02;101021.97;5060945;28;1813;-40
2021/07/22 10:34:23;;;;;;;;;;;;;;;24.92;50.54;101032.63;5061385;28;1508;-40
2021/07/22 10:36:54;;;;;;;;;;;;;;;24.86;50.69;101030.59;5066577;28;1436;-40
2021/07/22 10:39:36;;;;;;;;;;;;;;;24.94;50.21;101027.88;5060204;28;1902;-40
2021/07/22 10:47:59;;;;;;;;;;;;;;;24.96;49.66;101019.63;5063421;28;1847;-40
2021/07/22 10:50:42;;;;;;;;;;;;;;;25.00;50.06;101010.13;5067877;28;1638;-40
2021/07/22 10:53:13;;;;;;;;;;;;;;;24.94;51.20;101006.25;5059094;28;1994;-40
2021/07/22 10:55:53;;;;;;;;;;;;;;;25.07;48.87;101004.88;5059997;28;1341;-39
2021/07/22 10:58:36;;;;;;;;;;;;;;;25.04;50.47;101008.78;5070118;28;1898;-40
2021/07/22 11:01:09;;;;;;;;;;;;;;;25.00;50.48;101013.69;5050936;28;1951;-40
2021/07/22 11:03:58;;;;;;;;;;;;;;;24.95;50.21;101005.25;5059065;28;1484;-40
2021/07/22 11:06:28;;;;;;;;;;;;;;;25.01;49.06;101007.28;5067012;28;1525;-40
2021/07/22 11:09:12;;;;;;;;;;;;;;;25.08;49.03;101014.72;5070219;28;1552;-40
2021/07/22 11:11:51;;;;;;;;;;;;;;;25.06;46.60;100986.97;5067084;28;1952;-40
2021/07/22 11:14:36;;;;;;;;;;;;;;;25.05;49.93;100993.38;5061729;28;1525;-40
2021/07/22 11:17:03;;;;;;;;;;;;;;;24.99;50.34;100982.25;5062174;28;1714;-40
2021/07/22 11:19:31;;;;;;;;;;;;;;;24.95;48.13;100983.59;5061270;28;1981;-40
2021/07/22 11:22:04;;;;;;;;;;;;;;;25.04;48.81;100981.72;5064660;28;1672;-40
2021/07/22 11:24:30;;;;;;;;;;;;;;;25.00;49.04;100988.50;5059838;28;1934;-40
2021/07/22 11:26:58;;;;;;;;;;;;;;;25.05;47.53;100979.84;5065211;28;1797;-39
2021/07/22 11:29:26;;;;;;;;;;;;;;;25.09;48.73;100994.75;5068021;28;1810;-40
2021/07/22 11:31:55;;;;;;;;;;;;;;;25.05;48.88;100980.72;5069351;28;1351;-39
2021/07/22 11:34:27;;;;;;;;;;;;;;;25.00;48.98;100972.25;5063043;28;1555;-39
2021/07/22 11:36:56;;;;;;;;;;;;;;;24.99;48.66;100990.38;5065366;28;1378;-40
2021/07/22 11:39:33;;;;;;;;;;;;;;;24.97;48.36;100976.16;5060554;28;1988;-40
2021/07/22 11:42:04;;;;;;;;;;;;;;;25.01;47.73;100988.34;5068178;28;1486;-40
2021/07/22 11:44:31;;;;;;;;;;;;;;;24.95;47.80;100970.09;5062645;28;1993;-39
2021/07/22 11:47:04;;;;;;;;;;;;;;;25.06;49.20;100981.56;5063769;28;1707;-40
2021/07/22 11:49:44;;;;;;;;;;;;;;;24.99;49.19;100973.28;5067839;28;1836;-40
2021/07/22 11:52:17;;;;;;;;;;;;;;;24.98;48.58;100979.72;5070080;28;1718;-40
2021/07/22 11:54:51;;;;;;;;;;;;;;;24.94;49.20;100957.56;5067987;28;1640;-39
2021/07/22 11:57:18;;;;;;;;;;;;;;;24.94;49.67;100956.72;5070823;28;2092;-40
2021/07/22 11:59:44;;;;;;;;;;;;;;;24.88;48.65;100952.81;5063171;28;1906;-39
2021/07/22 12:02:19;;;;;;;;;;;;;;;24.93;48.62;100963.13;5072197;28;1689;-40
2021/07/22 12:04:51;;;;;;;;;;;;;;;24.90;48.63;100937.28;5069760;28;1844;-40
2021/07/22 12:07:28;;;;;;;;;;;;;;;24.93;49.51;100944.19;5066321;28;1340;-40
2021/07/22 12:09:56;;;;;;;;;;;;;;;24.94;48.68;100957.56;5063569;28;1635;-40
2021/07/22 12:12:24;;;;;;;;;;;;;;;25.01;49.11;100953.16;5068082;28;1473;-39
2021/07/22 12:14:51;;;;;;;;;;;;;;;24.92;48.84;100937.94;5067821;28;1621;-39
2021/07/22 12:17:18;;;;;;;;;;;;;;;24.89;49.64;100934.72;5068620;28;1671;-39
2021/07/22 12:19:56;;;;;;;;;;;;;;;24.91;48.42;100928.16;5070098;28;1902;-39
2021/07/22 12:22:25;;;;;;;;;;;;;;;24.99;48.54;100936.25;5066701;28;1794;-39
2021/07/22 12:24:52;;;;;;;;;;;;;;;25.02;49.09;100926.94;5067070;28;1511;-40
2021/07/22 12:27:25;;;;;;;;;;;;;;;25.04;49.42;100929.47;5069832;28;1752;-39
2021/07/22 12:29:52;;;;;;;;;;;;;;;24.98;49.20;100917.47;5067709;28;1821;-40
2021/07/22 12:32:18;;;;;;;;;;;;;;;25.01;49.30;100938.78;5060904;28;1661;-39
2021/07/22 12:34:45;;;;;;;;;;;;;;;24.90;48.21;100920.19;5070853;28;1803;-39
2021/07/22 12:37:11;;;;;;;;;;;;;;;24.91;49.18;100930.00;5067974;28;1766;-39
2021/07/22 12:39:39;;;;;;;;;;;;;;;24.95;48.17;100915.13;5068371;28;1910;-39
2021/07/22 12:42:09;;;;;;;;;;;;;;;25.00;49.44;100923.56;5070405;28;1844;-40
2021/07/22 12:44:49;;;;;;;;;;;;;;;25.04;48.08;100910.53;5064006;28;1718;-39
2021/07/22 12:47:35;;;;;;;;;;;;;;;25.00;49.25;100913.56;5061830;28;1735;-39
2021/07/22 12:50:08;;;;;;;;;;;;;;;25.01;48.74;100899.03;5070705;28;1662;-39
2021/07/22 12:52:51;;;;;;;;;;;;;;;25.02;47.80;100900.72;5072363;28;1914;-39
2021/07/22 12:55:28;;;;;;;;;;;;;;;25.06;48.28;100909.34;5065110;28;1925;-39
2021/07/22 12:57:56;;;;;;;;;;;;;;;25.00;48.55;100908.16;5065348;28;1987;-40
2021/07/22 13:00:25;;;;;;;;;;;;;;;25.09;47.62;100900.03;5066342;28;1390;-39
2021/07/22 13:02:54;;;;;;;;;;;;;;;25.09;47.32;100914.44;5057371;28;1717;-40
2021/07/22 13:05:21;;;;;;;;;;;;;;;24.98;47.33;100904.78;5061640;28;1077;-39
2021/07/22 13:07:51;;;;;;;;;;;;;;;25.06;47.64;100917.47;5060963;28;1858;-39
2021/07/22 13:10:26;;;;;;;;;;;;;;;25.07;47.11;100924.59;5055617;28;1810;-39
2021/07/22 13:12:54;;;;;;;;;;;;;;;25.06;47.53;100916.63;5065344;28;1983;-39
2021/07/22 13:15:21;;;;;;;;;;;;;;;25.06;48.92;100908.50;5059303;28;1790;-40
2021/07/22 13:17:49;;;;;;;;;;;;;;;25.01;47.70;100901.75;5064129;28;1074;-39